Pagrindinis puslapis
METAR-TAF:

METAR-TAF

Oro uostai :

Venice, Florida, Jungtinės Amerikos Valstijos

platuma: 27-04-18N, ilguma: 082-26-25W, Aukštis: 5 m

Dabartinis oras

Ataskaita buvo paskelbta 28 minutes, ne 18:35 UTC
Vėjas 6 kt iš Vakarų
Temperatūra 31°C
Drėgmė 63%
Slėgis 1013 hPa
Matomumas: 8.0 km
Mažai debesys ne aukštis 8000 ft
Išsisklaidę debesys ne aukštis 9000 ft
migla

METAR: KVNC 171835Z AUTO 27006KT 5SM HZ FEW080 SCT090 31/23 A2992 RMK AO2

Laikas: 15:03 (19:03 UTC)


TAF: trūkstamas

Orai ataskaitas ir orų prognozės (METAR, TAF).

turimą stotys yra geltonos ir raudonos taškus žemėlapyje.

Perkelti pele per norėdami pamatyti stoties vardą.

Tada spustelėkite, norėdami matyti oro stebėjimo ir prognozės.

Norėdami pakeisti žemėlapį: spustelėkite ant žalios mygtukų su juodo kryžiaus žemyn,; žalią mygtuką su brūkšneliu, jei norite nutolinti; arba žalių rodyklių gretimoms žemėlapius.


METAR-TAF: